Omskiy-107 — UBWE3 — position and weather

sailwx.info

Track history (hours):
 
Tides and Currents Weather Stations Pressure Air Temp Water Temp Dewpoint Dewpoint Depression Visibility Wind Speed Wind Dir Waves Ship Positions

Omskiy-107

Last reported at 2017-Jun-21 11:42 UTC. Time now 2017-Jun-23 19:08 UTC.
Position N 44°44' E 036°23'.

Length 108 m; draft 3.4 m.

Type: Cargo ship. MMSI: 273343220.

Date/timePositionNaut miles runAvg speedWind from/ knotsBaromVisibWave heightAir tempDewpointWater temp
2017-Jun-21 11:42N 44°44' E 036°23'2 7.6
2017-Jun-21 11:27N 44°46' E 036°24'3 7.5
2017-Jun-21 11:00N 44°48' E 036°27'24 7.3
2017-Jun-21 07:45N 45°12' E 036°28'3 7.0
2017-Jun-21 07:16N 45°16' E 036°28'2 6.3
2017-Jun-21 07:00N 45°17' E 036°29'3 6.3
2017-Jun-21 06:30N 45°19' E 036°32'3 6.8
2017-Jun-21 06:00N 45°20' E 036°37'3 6.5
2017-Jun-21 05:30N 45°23' E 036°40'3 6.7
2017-Jun-21 05:00N 45°26' E 036°41'2 3.7
2017-Jun-21 04:30N 45°27' E 036°39'1 2.5
2017-Jun-21 03:55N 45°28' E 036°38'0 0.0
2017-Jun-21 02:45N 45°28' E 036°38'0 0.1
2017-Jun-21 02:24N 45°28' E 036°38'0 0.5
2017-Jun-21 02:00N 45°28' E 036°38'5 7.3
2017-Jun-21 01:23N 45°31' E 036°43'3 8.1
2017-Jun-21 00:58N 45°34' E 036°45'4 8.0
2017-Jun-21 00:26N 45°38' E 036°46'3 8.0
2017-Jun-21 00:00N 45°41' E 036°48'14 8.0
2017-Jun-20 22:12N 45°55' E 036°54'  
Track history (hours):
 
Tides and Currents Weather Stations Pressure Air Temp Water Temp Dewpoint Dewpoint Depression Visibility Wind Speed Wind Dir Waves Ship Positions

Omskiy-107

Last reported at 2017-Jun-21 11:42 UTC. Time now 2017-Jun-23 19:08 UTC.
Position N 44°44' E 036°23'.

Length 108 m; draft 3.4 m.

Type: Cargo ship. MMSI: 273343220.

Date/timePositionNaut miles runAvg speedWind from/ knotsBaromVisibWave heightAir tempDewpointWater temp
2017-Jun-21 11:42N 44°44' E 036°23'2 7.6
2017-Jun-21 11:27N 44°46' E 036°24'3 7.5
2017-Jun-21 11:00N 44°48' E 036°27'24 7.3
2017-Jun-21 07:45N 45°12' E 036°28'3 7.0
2017-Jun-21 07:16N 45°16' E 036°28'2 6.3
2017-Jun-21 07:00N 45°17' E 036°29'3 6.3
2017-Jun-21 06:30N 45°19' E 036°32'3 6.8
2017-Jun-21 06:00N 45°20' E 036°37'3 6.5
2017-Jun-21 05:30N 45°23' E 036°40'3 6.7
2017-Jun-21 05:00N 45°26' E 036°41'2 3.7
2017-Jun-21 04:30N 45°27' E 036°39'1 2.5
2017-Jun-21 03:55N 45°28' E 036°38'0 0.0
2017-Jun-21 02:45N 45°28' E 036°38'0 0.1
2017-Jun-21 02:24N 45°28' E 036°38'0 0.5
2017-Jun-21 02:00N 45°28' E 036°38'5 7.3
2017-Jun-21 01:23N 45°31' E 036°43'3 8.1
2017-Jun-21 00:58N 45°34' E 036°45'4 8.0
2017-Jun-21 00:26N 45°38' E 036°46'3 8.0
2017-Jun-21 00:00N 45°41' E 036°48'14 8.0
2017-Jun-20 22:12N 45°55' E 036°54'  

Dump ship's entire track history